Terminal Aerodrome Forecast
Issued by NWS

Home | Current Version | Previous Version | Text Only | Print | Product List | Glossary Off
Versions: 1 2 3 4 5 6 7 8 9 10 11 12 13 14 15 16

000
FTUS45 KGGW 280521
TAFSDY
TAF
KSDY 280521Z 2806/0106 09006KT P6SM BKN025
     FM281200 12004KT P6SM BKN015
     FM281800 15008KT P6SM VCSH OVC015
     FM282300 17006KT P6SM BKN020
     FM010300 31006KT P6SM VCSH SCT006 BKN007=

USA.gov is the U.S. government's official web portal to all federal, state and local government web resources and services.